Amanda, Ohio
Current Conditions -  °F | °C
As of 6:53 PM on Friday 28 Nov 2014 (Local Time) from KLHQ Reporting Station
Clear Clear  
Wind Chill: 24°   Ceiling: Unl
Heat Index: 30°   Visibility: 10mi
Dew Point: 17°   Wind: 6mph
Humidity: 59%   Direction: 150°SSE
Pressure: 30.21"   Gusts: NA
Location:  39.65°N, 82.74°W
Report Text: KLHQ 282353Z AUTO 15005KT 10SM CLR M01/M08 A3021 RMK AO2 SLP241 T10111083 10000 21017 58015
Loading
Personal Weather Stations






























Interactive Weather Map New forecast layout! Learn more

10-Day Weather Forecast

Advertisements
Track Severe Weather on mobile